Time;durP1;ratioP1;P1;durP2;ratioP2;P2;SDS_P1;SDS_P2;PMS_P1;PMS_P2;Temp;Humidity;BMP_temperature;BMP_pressure;BME280_temperature;BME280_humidity;BME280_pressure;Samples;Min_cycle;Max_cycle;Signal;HPM_P1;HPM_P2
2022/04/20 00:00:18;;;;;;;17.08;9.10;;;22.90;35.90;;;;;;6130648;28;80621;-67
2022/04/20 00:03:18;;;;;;;14.52;8.57;;;22.90;35.50;;;;;;6133898;28;80500;-68
2022/04/20 00:06:19;;;;;;;18.48;9.27;;;22.90;36.70;;;;;;6130721;28;81037;-67
2022/04/20 00:09:19;;;;;;;15.07;8.73;;;22.80;36.30;;;;;;6114200;28;81614;-67
2022/04/20 00:12:20;;;;;;;18.10;9.45;;;22.90;36.20;;;;;;6123724;28;81300;-68
2022/04/20 00:15:21;;;;;;;15.65;8.35;;;22.90;36.00;;;;;;6114774;28;80562;-68
2022/04/20 00:18:21;;;;;;;16.75;9.07;;;22.90;35.80;;;;;;6113106;28;80504;-68
2022/04/20 00:21:22;;;;;;;14.68;8.60;;;22.80;35.60;;;;;;6114464;28;81576;-68
2022/04/20 00:24:22;;;;;;;14.15;8.38;;;22.80;35.90;;;;;;6113040;28;83029;-68
2022/04/20 00:27:23;;;;;;;13.68;8.43;;;22.80;35.70;;;;;;6114533;28;80283;-68
2022/04/20 00:30:23;;;;;;;16.08;9.18;;;22.80;35.60;;;;;;6112610;28;81563;-67
2022/04/20 00:33:24;;;;;;;13.15;7.60;;;22.80;35.70;;;;;;6131219;28;80428;-68
2022/04/20 00:36:24;;;;;;;16.08;8.43;;;22.80;35.70;;;;;;6136640;28;80620;-67
2022/04/20 00:39:25;;;;;;;12.40;7.68;;;22.80;35.90;;;;;;6136952;28;80291;-67
2022/04/20 00:42:25;;;;;;;13.90;8.48;;;22.80;35.70;;;;;;6123880;28;81396;-67
2022/04/20 00:45:26;;;;;;;14.60;8.93;;;22.80;36.20;;;;;;6136549;28;80462;-67
2022/04/20 00:48:26;;;;;;;16.60;9.20;;;22.80;36.00;;;;;;6120491;28;81084;-67
2022/04/20 00:51:27;;;;;;;13.25;8.20;;;22.80;35.60;;;;;;6111509;28;83074;-67
2022/04/20 00:54:28;;;;;;;13.43;8.15;;;22.70;35.70;;;;;;6135239;28;83097;-67
2022/04/20 00:57:29;;;;;;;16.13;8.00;;;22.80;35.70;;;;;;6135118;28;83098;-67
2022/04/20 01:00:31;;;;;;;13.60;8.43;;;22.80;35.70;;;;;;6135049;28;83423;-67
2022/04/20 01:03:32;;;;;;;14.65;8.38;;;22.70;35.80;;;;;;6119395;28;83277;-67
2022/04/20 01:06:51;;;;;;;14.60;8.27;;;22.80;35.50;;;;;;6111871;28;80359;-67
2022/04/20 01:10:17;;;;;;;15.47;9.10;;;22.80;35.70;;;;;;6118147;28;80684;-66
2022/04/20 01:13:40;;;;;;;14.77;8.02;;;22.80;35.70;;;;;;6125141;28;85718;-67
2022/04/20 01:17:11;;;;;;;13.13;7.80;;;22.80;35.70;;;;;;6131791;28;81479;-66
2022/04/20 01:20:30;;;;;;;14.27;7.90;;;22.80;35.60;;;;;;6109218;28;80492;-65
2022/04/20 01:23:43;;;;;;;15.23;8.70;;;22.80;35.60;;;;;;6123451;28;83324;-66
2022/04/20 01:27:02;;;;;;;16.13;8.40;;;22.80;35.60;;;;;;6134317;28;80565;-66
2022/04/20 01:30:20;;;;;;;17.60;8.75;;;22.80;35.50;;;;;;6133145;28;83639;-66
2022/04/20 01:33:47;;;;;;;;;;;22.80;35.40;;;;;;6133857;28;80861;-66
2022/04/20 01:36:47;;;;;;;12.48;8.55;;;22.80;35.50;;;;;;6141423;28;80426;-67
2022/04/20 01:39:48;;;;;;;15.80;8.57;;;22.80;35.40;;;;;;6133316;28;80263;-67
2022/04/20 01:42:49;;;;;;;12.63;7.93;;;22.80;35.20;;;;;;6133009;28;83290;-67
2022/04/20 01:45:50;;;;;;;14.25;8.27;;;22.80;35.40;;;;;;6134939;28;80475;-68
2022/04/20 01:49:09;;;;;;;13.77;8.75;;;22.80;35.40;;;;;;6134709;28;80690;-67
2022/04/20 01:52:10;;;;;;;15.48;8.82;;;22.70;35.60;;;;;;6134703;28;80386;-67
2022/04/20 01:55:34;;;;;;;14.15;8.70;;;22.70;35.50;;;;;;6112054;28;85644;-67
2022/04/20 01:58:48;;;;;;;14.68;8.77;;;22.70;35.50;;;;;;6110431;28;80714;-68
2022/04/20 02:05:40;;;;;;;12.70;8.18;;;22.70;35.30;;;;;;6132244;28;82971;-67
2022/04/20 02:08:53;;;;;;;16.05;8.35;;;22.70;35.40;;;;;;6127120;28;82807;-66
2022/04/20 02:12:15;;;;;;;15.15;8.50;;;22.60;35.50;;;;;;6110252;28;83827;-66
2022/04/20 02:15:48;;;;;;;13.63;8.40;;;22.60;35.40;;;;;;6118433;28;80704;-67
2022/04/20 02:19:24;;;;;;;15.40;8.63;;;22.70;35.60;;;;;;6117407;28;85408;-66
2022/04/20 02:22:29;;;;;;;15.20;7.93;;;22.70;35.70;;;;;;6134289;28;83213;-66
2022/04/20 02:25:31;;;;;;;13.27;7.60;;;22.60;35.50;;;;;;6131796;28;80388;-67
2022/04/20 02:28:32;;;;;;;14.43;8.52;;;22.60;35.40;;;;;;6132502;28;81438;-67
2022/04/20 02:31:33;;;;;;;13.10;8.07;;;22.60;35.50;;;;;;6109691;28;83639;-66
2022/04/20 02:34:33;;;;;;;15.55;9.20;;;22.60;35.60;;;;;;6132036;28;81407;-67
2022/04/20 02:37:35;;;;;;;13.00;8.30;;;22.60;35.30;;;;;;6133308;28;83579;-67
2022/04/20 02:40:36;;;;;;;14.90;8.98;;;22.60;35.20;;;;;;6135189;28;80752;-66
2022/04/20 02:43:37;;;;;;;17.05;8.50;;;22.70;35.40;;;;;;6135193;28;81690;-67
2022/04/20 02:46:37;;;;;;;13.55;8.55;;;22.60;35.40;;;;;;6134821;28;80763;-67
2022/04/20 02:49:38;;;;;;;17.63;8.75;;;22.70;35.40;;;;;;6134305;28;80486;-68
2022/04/20 02:52:39;;;;;;;14.82;8.25;;;22.60;35.30;;;;;;6132362;28;83112;-66
2022/04/20 02:55:44;;;;;;;14.20;9.15;;;22.60;35.60;;;;;;6132841;28;83632;-66
2022/04/20 02:58:45;;;;;;;14.52;8.02;;;22.70;35.50;;;;;;6122887;28;83291;-66
2022/04/20 03:01:46;;;;;;;14.85;8.45;;;22.70;35.40;;;;;;6130357;28;82108;-67
2022/04/20 03:04:50;;;;;;;15.23;9.23;;;22.70;35.40;;;;;;6132861;28;83336;-67
2022/04/20 03:07:54;;;;;;;14.90;8.70;;;22.60;35.00;;;;;;6132775;28;83514;-67
2022/04/20 03:10:56;;;;;;;15.45;8.80;;;22.60;35.20;;;;;;6132458;28;83403;-64
2022/04/20 03:14:00;;;;;;;14.88;9.18;;;22.60;35.70;;;;;;6133199;28;82059;-65
2022/04/20 03:17:00;;;;;;;16.90;9.70;;;22.70;35.10;;;;;;6132074;28;80327;-64
2022/04/20 03:20:01;;;;;;;16.38;9.57;;;22.70;34.80;;;;;;6132939;28;83031;-67
2022/04/20 03:23:02;;;;;;;16.58;10.75;;;22.70;34.50;;;;;;6135118;28;80489;-67
2022/04/20 03:26:03;;;;;;;20.08;10.95;;;22.80;34.50;;;;;;6127374;28;83275;-67
2022/04/20 03:29:34;;;;;;;17.38;10.57;;;22.80;34.30;;;;;;6121509;28;84064;-68
2022/04/20 03:32:36;;;;;;;20.92;10.68;;;22.90;34.20;;;;;;6105588;28;88869;-68
2022/04/20 03:35:36;;;;;;;18.40;10.82;;;22.90;34.20;;;;;;6114371;28;83030;-68
2022/04/20 03:38:38;;;;;;;18.35;11.15;;;22.90;34.00;;;;;;6129316;28;85823;-68
2022/04/20 03:41:38;;;;;;;21.40;12.10;;;22.90;34.10;;;;;;6128851;28;84212;-66
2022/04/20 03:44:39;;;;;;;17.10;10.75;;;23.00;34.00;;;;;;6130780;28;84475;-67
2022/04/20 03:47:40;;;;;;;19.10;10.70;;;23.00;34.00;;;;;;6130821;28;83953;-67
2022/04/20 03:50:41;;;;;;;20.23;11.52;;;23.00;34.00;;;;;;6128794;28;86044;-68
2022/04/20 03:53:41;;;;;;;19.73;11.40;;;23.10;34.60;;;;;;6129406;28;85170;-68
2022/04/20 04:00:02;;;;;;;21.73;13.57;;;23.10;33.90;;;;;;6104935;28;86116;-68
2022/04/20 04:03:03;;;;;;;20.58;12.68;;;23.10;33.90;;;;;;6105181;28;84037;-66
2022/04/20 04:06:07;;;;;;;18.17;10.88;;;23.10;33.80;;;;;;6110929;28;85348;-66
2022/04/20 04:09:08;;;;;;;20.15;11.32;;;23.10;33.90;;;;;;6128373;28;83255;-65
2022/04/20 04:12:09;;;;;;;21.23;11.85;;;23.10;34.00;;;;;;6111290;28;85784;-69
2022/04/20 04:15:17;;;;;;;22.33;12.52;;;23.20;34.20;;;;;;6114555;28;84384;-68
2022/04/20 04:18:20;;;;;;;23.85;12.50;;;23.20;34.80;;;;;;6130542;28;85651;-70
2022/04/20 04:21:23;;;;;;;20.25;11.85;;;23.20;34.70;;;;;;6130206;28;83925;-70
2022/04/20 04:24:36;;;;;;;19.98;11.75;;;23.30;34.40;;;;;;6123617;28;85998;-67
2022/04/20 04:27:44;;;;;;;21.85;12.15;;;23.30;34.20;;;;;;6119152;28;86607;-65
2022/04/20 04:30:45;;;;;;;23.33;13.00;;;23.30;34.20;;;;;;6120182;28;85844;-65
2022/04/20 04:33:45;;;;;;;18.27;10.95;;;23.40;34.10;;;;;;6104167;28;86050;-66
2022/04/20 04:36:46;;;;;;;23.00;12.32;;;23.40;34.10;;;;;;6106084;28;82908;-67
2022/04/20 04:39:49;;;;;;;22.88;12.25;;;23.40;34.00;;;;;;6113246;28;84245;-67
2022/04/20 04:42:51;;;;;;;25.42;14.38;;;23.40;33.90;;;;;;6127208;28;85722;-67
2022/04/20 04:49:21;;;;;;;23.65;13.45;;;23.40;34.00;;;;;;6104258;28;83076;-64
2022/04/20 04:52:21;;;;;;;25.13;13.88;;;23.40;34.40;;;;;;6118555;28;90278;-65
2022/04/20 04:55:30;;;;;;;24.08;12.95;;;23.40;34.70;;;;;;6107484;28;83972;-66
2022/04/20 04:58:31;;;;;;;26.77;13.88;;;23.40;34.60;;;;;;6123556;28;84364;-66
2022/04/20 05:01:34;;;;;;;26.75;12.77;;;23.40;34.90;;;;;;6119796;28;85557;-66
2022/04/20 05:04:41;;;;;;;23.15;14.35;;;23.40;34.90;;;;;;6107741;28;85254;-67
2022/04/20 05:07:43;;;;;;;26.00;14.52;;;23.40;35.00;;;;;;6116940;28;85926;-67
2022/04/20 05:10:48;;;;;;;30.53;14.93;;;23.40;35.20;;;;;;6122383;28;84537;-66
2022/04/20 05:13:50;;;;;;;21.52;13.93;;;23.40;35.30;;;;;;6107720;28;84436;-66
2022/04/20 05:16:51;;;;;;;23.88;14.40;;;23.40;35.40;;;;;;6129620;28;83132;-73
2022/04/20 05:19:52;;;;;;;22.83;14.05;;;23.40;35.50;;;;;;6119766;28;85903;-66
2022/04/20 05:22:57;;;;;;;24.80;15.20;;;23.40;35.50;;;;;;6115878;28;85955;-66
2022/04/20 05:26:01;;;;;;;24.35;15.18;;;23.40;35.30;;;;;;6131367;28;85743;-66
2022/04/20 05:29:02;;;;;;;24.75;14.00;;;23.40;35.40;;;;;;6125949;28;86155;-65
2022/04/20 05:32:08;;;;;;;24.30;14.33;;;23.40;35.40;;;;;;6128807;28;84106;-66
2022/04/20 05:35:10;;;;;;;22.55;13.60;;;23.40;35.40;;;;;;6122097;28;85582;-64
2022/04/20 05:41:40;;;;;;;26.42;14.43;;;23.40;35.40;;;;;;6132447;28;85897;-66
2022/04/20 05:44:42;;;;;;;24.37;13.63;;;23.40;35.60;;;;;;6133286;28;85737;-67
2022/04/20 05:47:43;;;;;;;23.30;14.48;;;23.40;35.50;;;;;;6134664;28;85640;-66
2022/04/20 05:50:43;;;;;;;26.10;14.93;;;23.40;35.60;;;;;;6134669;28;85915;-66
2022/04/20 05:53:44;;;;;;;22.48;14.20;;;23.30;35.60;;;;;;6125218;28;82938;-66
2022/04/20 05:56:46;;;;;;;23.27;14.07;;;23.30;35.90;;;;;;6109232;28;85918;-67
2022/04/20 05:59:46;;;;;;;25.08;15.35;;;23.40;35.70;;;;;;6108069;28;84553;-72
2022/04/20 06:02:47;;;;;;;26.92;14.43;;;23.40;36.10;;;;;;6126704;28;84397;-66
2022/04/20 06:05:53;;;;;;;;;;;23.40;36.10;;;;;;6108218;28;86185;-65
2022/04/20 06:09:09;;;;;;;31.50;14.43;;;23.30;35.80;;;;;;6128429;28;86219;-66
2022/04/20 06:12:12;;;;;;;21.73;13.75;;;23.40;36.20;;;;;;6133650;28;83254;-67
2022/04/20 06:15:30;;;;;;;26.02;13.98;;;23.30;35.80;;;;;;6130257;28;85323;-66
2022/04/20 06:18:56;;;;;;;;;;;23.40;36.00;;;;;;6132590;28;83714;-70
2022/04/20 06:22:05;;;;;;;27.15;14.88;;;23.30;35.90;;;;;;6139084;28;82993;-68
2022/04/20 06:25:35;;;;;;;26.63;14.15;;;23.30;35.70;;;;;;6121923;28;83263;-67
2022/04/20 06:29:08;;;;;;;24.70;14.63;;;23.30;36.00;;;;;;6115165;28;84354;-67
2022/04/20 06:32:23;;;;;;;21.38;13.18;;;23.30;35.90;;;;;;6130727;28;85941;-68
2022/04/20 06:35:57;;;;;;;26.00;14.35;;;23.20;35.90;;;;;;6120477;28;84848;-66
2022/04/20 06:39:18;;;;;;;25.35;14.18;;;23.20;35.90;;;;;;6114668;28;84898;-67
2022/04/20 06:42:34;;;;;;;22.55;13.90;;;23.20;36.20;;;;;;6132158;28;83387;-67
2022/04/20 06:45:58;;;;;;;35.38;13.98;;;23.20;36.30;;;;;;6115967;28;85436;-66
2022/04/20 06:49:22;;;;;;;24.55;13.88;;;23.20;36.40;;;;;;6123362;28;86718;-66
2022/04/20 06:59:03;;;;;;;21.50;13.07;;;23.20;36.60;;;;;;6111269;28;83962;-66
2022/04/20 07:02:24;;;;;;;22.42;13.98;;;23.20;36.60;;;;;;6107174;28;83092;-66
2022/04/20 07:05:54;;;;;;;30.00;15.07;;;23.20;36.70;;;;;;6113893;28;84168;-66
2022/04/20 07:09:21;;;;;;;27.40;15.07;;;23.20;36.70;;;;;;6129231;28;82905;-65
2022/04/20 07:12:40;;;;;;;24.38;14.73;;;23.20;36.70;;;;;;6132699;28;82656;-65
2022/04/20 07:15:40;;;;;;;23.30;14.70;;;23.20;36.50;;;;;;6117511;28;83968;-66
2022/04/20 07:18:41;;;;;;;24.48;14.77;;;23.20;36.70;;;;;;6109766;28;85412;-66
2022/04/20 07:22:10;;;;;;;23.92;14.20;;;23.20;36.60;;;;;;6106071;28;86314;-67
2022/04/20 07:25:38;;;;;;;22.15;13.48;;;23.20;36.40;;;;;;6107575;28;87496;-66
2022/04/20 07:28:49;;;;;;;23.65;13.65;;;23.20;36.40;;;;;;6124657;28;85893;-66
2022/04/20 07:32:11;;;;;;;24.77;14.68;;;23.20;36.30;;;;;;6114219;28;83640;-67
2022/04/20 07:35:30;;;;;;;24.95;14.40;;;23.20;36.30;;;;;;6115338;28;83826;-66
2022/04/20 07:38:49;;;;;;;25.23;13.68;;;23.20;36.30;;;;;;6131350;28;83057;-66
2022/04/20 07:42:08;;;;;;;29.15;14.65;;;23.10;36.30;;;;;;6130956;28;83055;-73
2022/04/20 07:45:28;;;;;;;24.50;14.45;;;23.10;36.30;;;;;;6131747;28;83566;-68
2022/04/20 07:48:49;;;;;;;23.58;12.98;;;23.20;36.40;;;;;;6131553;28;84217;-69
2022/04/20 07:52:13;;;;;;;22.92;12.90;;;23.10;36.40;;;;;;6128497;28;83692;-68
2022/04/20 07:55:49;;;;;;;22.67;13.27;;;23.10;36.50;;;;;;6130244;28;88401;-65
2022/04/20 07:59:13;;;;;;;21.13;12.98;;;23.10;36.60;;;;;;6121272;28;84860;-68
2022/04/20 08:02:23;;;;;;;21.67;12.50;;;23.10;36.70;;;;;;6120956;28;84071;-68
2022/04/20 08:05:56;;;;;;;22.27;12.63;;;23.10;36.70;;;;;;6115427;28;84394;-68
2022/04/20 08:08:59;;;;;;;27.13;14.52;;;23.10;36.70;;;;;;6113965;28;85968;-67
2022/04/20 08:11:59;;;;;;;23.15;13.65;;;23.10;36.60;;;;;;6128867;28;85931;-66
2022/04/20 08:15:00;;;;;;;21.60;13.02;;;23.10;36.70;;;;;;6129219;28;86367;-70
2022/04/20 08:18:07;;;;;;;23.33;13.13;;;23.10;37.00;;;;;;6128749;28;85686;-67
2022/04/20 08:21:40;;;;;;;25.50;13.18;;;23.20;37.00;;;;;;6135110;28;84306;-68
2022/04/20 08:24:45;;;;;;;22.40;12.80;;;23.20;36.70;;;;;;6109500;28;83538;-67
2022/04/20 08:27:46;;;;;;;22.08;12.43;;;23.20;36.90;;;;;;6110736;28;82810;-67
2022/04/20 08:30:46;;;;;;;19.38;12.10;;;23.20;36.90;;;;;;6112188;28;82935;-71
2022/04/20 08:33:47;;;;;;;22.73;12.60;;;23.20;36.70;;;;;;6132343;28;83029;-66
2022/04/20 08:36:47;;;;;;;21.60;11.93;;;23.20;36.90;;;;;;6120973;28;84187;-66
2022/04/20 08:39:48;;;;;;;74.13;34.85;;;23.20;36.70;;;;;;6135445;28;82945;-65
2022/04/20 08:42:48;;;;;;;149.20;70.75;;;23.20;37.30;;;;;;6118486;28;83109;-66
2022/04/20 08:45:49;;;;;;;212.30;104.20;;;23.20;36.70;;;;;;6110795;28;84502;-66
2022/04/20 08:48:50;;;;;;;307.05;145.15;;;23.20;36.70;;;;;;6112196;28;85374;-66
2022/04/20 08:55:09;;;;;;;240.50;115.80;;;23.30;36.90;;;;;;6123430;28;87001;-65
2022/04/20 08:58:10;;;;;;;226.60;109.60;;;23.30;36.80;;;;;;6118669;28;88228;-65
2022/04/20 09:01:12;;;;;;;186.00;95.38;;;23.30;37.00;;;;;;6130540;28;85411;-68
2022/04/20 09:04:12;;;;;;;154.32;75.55;;;23.30;36.70;;;;;;6134360;28;85441;-64
2022/04/20 09:07:15;;;;;;;155.95;74.18;;;23.30;37.10;;;;;;6128906;28;85428;-67
2022/04/20 09:10:16;;;;;;;151.10;69.35;;;23.30;37.20;;;;;;6131322;28;84147;-65
2022/04/20 09:13:17;;;;;;;141.80;66.97;;;23.30;37.30;;;;;;6110394;28;83056;-66
2022/04/20 09:16:17;;;;;;;120.10;57.10;;;23.30;37.10;;;;;;6110681;28;83432;-65
2022/04/20 09:19:18;;;;;;;127.20;60.67;;;23.40;37.40;;;;;;6129598;28;83276;-66
2022/04/20 09:22:18;;;;;;;116.18;54.53;;;23.30;37.20;;;;;;6121367;28;83051;-64
2022/04/20 09:25:19;;;;;;;105.05;50.20;;;23.30;36.80;;;;;;6110014;28;83236;-65
2022/04/20 09:28:21;;;;;;;84.78;43.80;;;23.30;36.80;;;;;;6120919;28;84501;-65
2022/04/20 09:31:21;;;;;;;86.70;41.60;;;23.30;36.70;;;;;;6132394;28;89405;-65
2022/04/20 09:34:21;;;;;;;90.45;41.35;;;23.30;36.70;;;;;;6117929;28;88708;-65
2022/04/20 09:37:22;;;;;;;84.72;39.75;;;23.30;36.70;;;;;;6122233;28;84100;-66
2022/04/20 09:40:22;;;;;;;71.43;34.88;;;23.30;36.80;;;;;;6130119;28;85808;-68
2022/04/20 09:43:23;;;;;;;59.90;30.17;;;23.30;36.90;;;;;;6131032;28;84778;-68
2022/04/20 09:49:43;;;;;;;54.05;28.30;;;23.20;37.60;;;;;;6132358;28;82934;-66
2022/04/20 09:52:44;;;;;;;56.00;26.33;;;23.20;36.80;;;;;;6129211;28;83109;-67
2022/04/20 09:55:45;;;;;;;47.28;24.58;;;23.20;36.80;;;;;;6117476;28;83195;-68
2022/04/20 09:58:46;;;;;;;50.53;23.90;;;23.20;36.90;;;;;;6117752;28;83023;-67
2022/04/20 10:01:47;;;;;;;41.85;21.27;;;23.20;36.80;;;;;;6109100;28;82954;-66
2022/04/20 10:04:48;;;;;;;41.17;20.42;;;23.20;36.80;;;;;;6118925;28;83291;-71
2022/04/20 10:07:49;;;;;;;43.03;19.20;;;23.20;36.80;;;;;;6109395;28;82929;-69
2022/04/20 10:10:49;;;;;;;35.72;17.77;;;23.20;36.90;;;;;;6130794;28;83464;-68
2022/04/20 10:16:05;;;;;;;29.67;15.55;;;23.20;37.00;;;;;;6132909;28;83825;-69
2022/04/20 10:17:10;;;;;;;27.88;14.38;;;23.20;37.00;;;;;;6133616;28;82960;-70
2022/04/20 10:20:11;;;;;;;30.48;15.35;;;23.30;37.00;;;;;;6133181;28;83227;-69
2022/04/20 10:23:11;;;;;;;24.30;13.60;;;23.30;37.00;;;;;;6130830;28;90060;-69
2022/04/20 10:26:12;;;;;;;33.97;14.63;;;23.30;37.00;;;;;;6109034;28;83005;-69
2022/04/20 10:29:16;;;;;;;28.92;14.15;;;23.40;37.10;;;;;;6113453;28;83691;-67
2022/04/20 10:32:22;;;;;;;22.23;12.10;;;23.40;37.00;;;;;;6128025;28;89388;-67
2022/04/20 10:35:23;;;;;;;22.02;11.95;;;23.40;37.00;;;;;;6114278;28;85322;-68
2022/04/20 10:38:31;;;;;;;24.80;12.13;;;23.40;37.20;;;;;;6122859;28;85303;-67
2022/04/20 10:41:46;;;;;;;20.35;10.60;;;23.40;37.00;;;;;;6112005;28;85960;-67
2022/04/20 10:44:46;;;;;;;17.70;10.45;;;23.40;37.00;;;;;;6118246;28;83798;-69
2022/04/20 10:47:47;;;;;;;19.25;10.85;;;23.40;37.00;;;;;;6131833;28;84468;-69
2022/04/20 10:50:47;;;;;;;19.33;10.45;;;23.40;37.10;;;;;;6124424;28;84267;-69
2022/04/20 10:53:48;;;;;;;18.45;10.07;;;23.40;37.10;;;;;;6113276;28;83219;-71
2022/04/20 10:56:49;;;;;;;15.95;8.43;;;23.40;37.40;;;;;;6130163;28;85190;-70
2022/04/20 10:59:49;;;;;;;30.35;10.90;;;23.40;37.20;;;;;;6140926;28;82737;-69
2022/04/20 11:02:50;;;;;;;20.70;8.40;;;23.40;37.20;;;;;;6132503;28;83338;-69
2022/04/20 11:05:53;;;;;;;19.17;9.05;;;23.40;37.00;;;;;;6135413;28;83026;-68
2022/04/20 11:08:54;;;;;;;15.65;8.38;;;23.40;37.10;;;;;;6134359;28;81650;-66
2022/04/20 11:18:40;;;;;;;14.02;7.80;;;23.50;37.20;;;;;;6135563;28;80653;-67
2022/04/20 11:22:07;;;;;;;17.17;7.78;;;23.50;37.10;;;;;;6125673;28;82809;-66
2022/04/20 11:25:08;;;;;;;15.07;7.47;;;23.50;37.10;;;;;;6122156;28;80672;-66
2022/04/20 11:28:08;;;;;;;10.82;6.78;;;23.50;36.80;;;;;;6132944;28;80870;-67
2022/04/20 11:31:09;;;;;;;13.35;6.68;;;23.50;37.30;;;;;;6128305;28;80413;-67
2022/04/20 11:34:10;;;;;;;14.07;6.95;;;23.50;36.70;;;;;;6134977;28;80712;-67
2022/04/20 11:37:11;;;;;;;11.50;6.50;;;23.40;36.70;;;;;;6126642;28;83392;-69
2022/04/20 11:40:15;;;;;;;8.07;5.57;;;23.40;37.20;;;;;;6134285;28;80256;-68
2022/04/20 11:43:18;;;;;;;14.50;6.05;;;23.50;37.60;;;;;;6132488;28;82847;-67
2022/04/20 11:46:20;;;;;;;12.20;6.18;;;23.50;37.40;;;;;;6134054;28;80432;-65
2022/04/20 11:49:20;;;;;;;14.60;5.93;;;23.60;38.70;;;;;;6110271;28;80346;-67
2022/04/20 11:52:24;;;;;;;9.52;5.28;;;23.60;39.10;;;;;;6129406;28;87318;-66
2022/04/20 11:55:44;;;;;;;20.80;5.70;;;23.60;39.10;;;;;;6130181;28;82833;-66
2022/04/20 11:58:45;;;;;;;9.23;5.03;;;23.60;38.70;;;;;;6133458;28;81065;-67
2022/04/20 12:01:45;;;;;;;9.98;5.80;;;23.60;38.70;;;;;;6137471;28;80444;-67
2022/04/20 12:04:46;;;;;;;7.80;4.93;;;23.60;38.70;;;;;;6138150;28;80437;-66
2022/04/20 12:07:48;;;;;;;7.68;5.10;;;23.70;38.70;;;;;;6136818;28;82500;-66
2022/04/20 12:10:49;;;;;;;12.13;6.97;;;23.70;38.60;;;;;;6135618;28;83531;-65
2022/04/20 12:13:49;;;;;;;11.88;5.93;;;23.70;38.90;;;;;;6138048;28;80436;-66
2022/04/20 12:16:51;;;;;;;9.48;5.43;;;23.70;38.80;;;;;;6127597;28;81068;-66
2022/04/20 12:19:57;;;;;;;11.32;5.32;;;23.70;39.00;;;;;;6113574;28;83051;-67
2022/04/20 12:22:57;;;;;;;12.77;5.35;;;23.70;39.20;;;;;;6137130;28;80386;-65
2022/04/20 12:26:01;;;;;;;7.47;4.85;;;23.70;38.90;;;;;;6135489;28;81653;-65
2022/04/20 12:29:02;;;;;;;11.75;5.03;;;23.70;38.70;;;;;;6137367;28;80319;-66
2022/04/20 12:32:03;;;;;;;7.78;4.47;;;23.70;38.50;;;;;;6137970;28;81232;-66
2022/04/20 12:35:04;;;;;;;10.77;5.20;;;23.70;39.30;;;;;;6136972;28;80879;-67
2022/04/20 12:38:09;;;;;;;9.23;4.88;;;23.70;39.10;;;;;;6130807;28;83960;-66
2022/04/20 12:41:11;;;;;;;13.50;5.55;;;23.70;39.30;;;;;;6125237;28;83271;-65
2022/04/20 12:44:12;;;;;;;11.90;5.15;;;23.70;40.40;;;;;;6133293;28;81137;-64
2022/04/20 12:47:15;;;;;;;14.95;6.43;;;23.70;39.60;;;;;;6123962;28;83583;-67
2022/04/20 12:50:16;;;;;;;11.90;6.13;;;23.70;39.20;;;;;;6114779;28;80515;-69
2022/04/20 12:53:18;;;;;;;11.38;5.05;;;23.70;39.00;;;;;;6128051;28;80903;-67
2022/04/20 13:02:57;;;;;;;14.30;5.22;;;23.70;39.60;;;;;;6136190;28;80143;-66
2022/04/20 13:05:58;;;;;;;13.40;5.07;;;23.60;39.30;;;;;;6136418;28;81825;-66
2022/04/20 13:08:58;;;;;;;10.80;4.60;;;23.60;39.40;;;;;;6122111;28;80431;-67
2022/04/20 13:11:59;;;;;;;10.35;5.20;;;23.70;39.30;;;;;;6129810;28;80382;-72
2022/04/20 13:15:00;;;;;;;11.20;5.32;;;23.60;39.10;;;;;;6113235;28;80824;-69
2022/04/20 13:18:01;;;;;;;10.98;4.65;;;23.70;39.30;;;;;;6117671;28;80346;-67
2022/04/20 13:21:01;;;;;;;9.88;5.35;;;23.70;39.30;;;;;;6128484;28;83402;-66
2022/04/20 13:24:02;;;;;;;12.25;4.70;;;23.70;39.10;;;;;;6113345;28;80488;-67
2022/04/20 13:30:22;;;;;;;11.98;4.25;;;23.60;38.70;;;;;;6133977;28;81738;-68
2022/04/20 13:33:22;;;;;;;9.52;4.93;;;23.60;38.70;;;;;;6136737;28;81306;-66
2022/04/20 13:36:23;;;;;;;8.63;4.55;;;23.60;38.80;;;;;;6131087;28;80234;-70
2022/04/20 13:39:24;;;;;;;10.70;4.65;;;23.60;38.60;;;;;;6127104;28;81678;-67
2022/04/20 13:42:25;;;;;;;13.88;5.28;;;23.60;38.40;;;;;;6121616;28;81804;-66
2022/04/20 13:45:25;;;;;;;8.40;4.30;;;23.60;38.40;;;;;;6125039;28;81684;-64
2022/04/20 13:48:26;;;;;;;8.30;4.78;;;23.60;38.50;;;;;;6128892;28;81770;-67
2022/04/20 13:51:26;;;;;;;13.63;4.50;;;23.50;38.70;;;;;;6121728;28;81443;-66
2022/04/20 13:54:27;;;;;;;7.22;4.35;;;23.60;38.90;;;;;;6125504;28;82100;-64
2022/04/20 13:57:27;;;;;;;9.00;4.50;;;23.60;39.00;;;;;;6124223;28;81690;-65
2022/04/20 14:00:29;;;;;;;9.38;4.63;;;23.60;39.00;;;;;;6125858;28;80576;-65
2022/04/20 14:03:30;;;;;;;6.13;3.70;;;23.60;38.90;;;;;;6122279;28;80647;-66
2022/04/20 14:06:30;;;;;;;9.23;5.07;;;23.60;39.00;;;;;;6128227;28;80768;-69
2022/04/20 14:09:31;;;;;;;6.78;4.28;;;23.60;38.90;;;;;;6128195;28;81050;-68
2022/04/20 14:12:31;;;;;;;9.73;4.75;;;23.60;38.90;;;;;;6121010;28;80780;-67
2022/04/20 14:15:32;;;;;;;8.52;4.38;;;23.60;38.90;;;;;;6125547;28;80503;-68
2022/04/20 14:18:33;;;;;;;7.30;4.60;;;23.60;38.80;;;;;;6130708;28;80297;-67
2022/04/20 14:21:33;;;;;;;9.48;4.57;;;23.60;38.50;;;;;;6135529;28;80340;-66
2022/04/20 14:24:34;;;;;;;8.50;4.78;;;23.60;38.30;;;;;;6134463;28;80389;-70
2022/04/20 14:34:13;;;;;;;7.05;4.38;;;23.60;38.30;;;;;;6136111;28;80418;-68
2022/04/20 14:37:14;;;;;;;8.73;4.45;;;23.50;38.10;;;;;;6135544;28;81131;-68
2022/04/20 14:40:15;;;;;;;8.15;4.53;;;23.50;38.10;;;;;;6127824;28;80603;-67
2022/04/20 14:43:16;;;;;;;24.00;17.75;;;23.50;38.20;;;;;;6107723;28;81567;-66
2022/04/20 14:46:17;;;;;;;15.98;11.13;;;23.60;38.50;;;;;;6089052;28;83241;-66
2022/04/20 14:49:18;;;;;;;64.95;32.05;;;23.60;38.20;;;;;;6088624;28;85639;-67
2022/04/20 14:52:21;;;;;;;133.07;66.05;;;23.70;38.50;;;;;;6130894;28;83192;-66
2022/04/20 14:55:22;;;;;;;168.10;83.38;;;23.70;38.60;;;;;;6107723;28;87527;-67
2022/04/20 14:58:23;;;;;;;207.32;103.80;;;23.80;38.40;;;;;;6130445;28;82978;-65
2022/04/20 15:01:23;;;;;;;179.35;84.68;;;23.80;38.50;;;;;;6128438;28;85748;-68
2022/04/20 15:04:24;;;;;;;147.75;76.78;;;23.80;38.30;;;;;;6132220;28;85464;-65
2022/04/20 15:07:24;;;;;;;133.45;68.38;;;23.90;38.30;;;;;;6131623;28;84179;-64
2022/04/20 15:10:25;;;;;;;133.73;62.38;;;23.90;38.20;;;;;;6132263;28;83083;-67
2022/04/20 15:13:26;;;;;;;120.88;59.47;;;23.90;38.30;;;;;;6130695;28;82836;-65
2022/04/20 15:16:26;;;;;;;109.63;54.55;;;24.00;38.40;;;;;;6112057;28;90248;-66
2022/04/20 15:19:27;;;;;;;100.93;49.55;;;24.00;38.30;;;;;;6132120;28;83515;-69
2022/04/20 15:22:28;;;;;;;100.55;48.50;;;23.90;38.20;;;;;;6123163;28;84672;-69
2022/04/20 15:25:32;;;;;;;86.10;45.53;;;23.90;38.10;;;;;;6114479;28;83714;-68
2022/04/20 15:28:33;;;;;;;84.68;42.95;;;23.90;38.10;;;;;;6131634;28;83136;-70
2022/04/20 15:31:33;;;;;;;83.72;39.88;;;23.80;37.90;;;;;;6131325;28;83096;-68
2022/04/20 15:34:34;;;;;;;73.97;37.92;;;23.80;37.80;;;;;;6131433;28;83247;-70
2022/04/20 15:37:34;;;;;;;82.05;35.90;;;23.80;37.90;;;;;;6130913;28;83379;-75
2022/04/20 15:40:36;;;;;;;81.15;37.47;;;23.70;38.10;;;;;;6131454;28;83277;-71
2022/04/20 15:43:38;;;;;;;76.90;37.80;;;23.70;38.10;;;;;;6112022;28;83082;-64
2022/04/20 15:46:39;;;;;;;91.28;38.90;;;23.70;38.00;;;;;;6128434;28;82917;-68
2022/04/20 15:49:39;;;;;;;89.05;39.72;;;23.70;37.80;;;;;;6114790;28;83139;-68
2022/04/20 15:52:40;;;;;;;91.53;40.75;;;23.70;38.00;;;;;;6112237;28;83570;-67
2022/04/20 16:02:20;;;;;;;72.80;34.65;;;23.60;37.70;;;;;;6130808;28;83420;-65
2022/04/20 16:05:22;;;;;;;73.53;32.92;;;23.60;37.80;;;;;;6130700;28;84593;-65
2022/04/20 16:08:22;;;;;;;62.00;28.08;;;23.60;37.90;;;;;;6128134;28;83776;-66
2022/04/20 16:11:23;;;;;;;61.42;29.10;;;23.60;37.90;;;;;;6125061;28;83015;-66
2022/04/20 16:14:25;;;;;;;62.25;27.33;;;23.50;38.50;;;;;;6115180;28;83130;-65
2022/04/20 16:17:25;;;;;;;55.47;25.95;;;23.50;38.90;;;;;;6107413;28;82950;-68
2022/04/20 16:20:26;;;;;;;55.45;24.40;;;23.60;38.90;;;;;;6129435;28;82687;-67
2022/04/20 16:23:26;;;;;;;49.45;22.70;;;23.60;38.70;;;;;;6109121;28;82904;-66
2022/04/20 16:26:27;;;;;;;46.30;22.52;;;23.50;39.10;;;;;;6107534;28;83281;-65
2022/04/20 16:29:29;;;;;;;50.70;22.88;;;23.50;38.80;;;;;;6109140;28;84212;-67
2022/04/20 16:32:30;;;;;;;40.45;20.65;;;23.50;39.00;;;;;;6106766;28;84428;-66
2022/04/20 16:35:31;;;;;;;42.08;18.42;;;23.50;39.80;;;;;;6107107;28;82930;-69
2022/04/20 16:38:31;;;;;;;46.55;19.98;;;23.50;39.50;;;;;;6106500;28;83015;-69
2022/04/20 16:41:32;;;;;;;36.75;17.58;;;23.50;39.60;;;;;;6106411;28;83133;-69